Terminal Aerodrome Forecast
Issued by NWS Sioux Falls, SD

Home | Current Version | Previous Version | Text Only | Print | Product List | Glossary Off
Versions: 1 2 3 4 5 6 7 8 9 10 11 12 13 14 15 16 17 18 19

000
FTUS43 KFSD 220800 AAA
TAFHON
TAF AMD
KHON 220828Z 2208/2306 34010KT P6SM VCSH SCT100
      TEMPO 2209/2210 -RA SCT060
     FM221100 34010KT P6SM SCT100
     FM221400 35014KT P6SM FEW020
     FM221800 01013G24KT P6SM SCT045
     FM230200 05004KT P6SM SCT250=

USA.gov is the U.S. government's official web portal to all federal, state and local government web resources and services.